Terminal Aerodrome Forecast
Issued by NWS

Home | Current Version | Previous Version | Text Only | Print | Product List | Glossary Off
Versions: 1 2 3 4 5 6 7 8 9 10 11 12

956
FTUS43 KMPX 010520
TAFRNH
TAF
KRNH 010520Z 0106/0206 04010KT P6SM OVC060
     FM010800 04010KT P6SM SCT060 BKN180
     FM020000 02004KT P6SM SKC=

USA.gov is the U.S. government's official web portal to all federal, state and local government web resources and services.